Time;durP1;ratioP1;P1;durP2;ratioP2;P2;SDS_P1;SDS_P2;PMS_P1;PMS_P2;Temp;Humidity;BMP_temperature;BMP_pressure;BME280_temperature;BME280_humidity;BME280_pressure;Samples;Min_cycle;Max_cycle;Signal;HPM_P1;HPM_P2
2021/12/27 00:00:44;;;;;;;26.85;16.08;;;-0.80;99.90;;;;;;5059856;28;20120;-66
2021/12/27 00:03:10;;;;;;;27.38;17.05;;;-0.80;99.90;;;;;;5061710;28;20041;-67
2021/12/27 00:05:36;;;;;;;24.85;15.40;;;-0.90;99.90;;;;;;5043891;28;20049;-68
2021/12/27 00:08:01;;;;;;;24.85;15.43;;;-0.90;99.90;;;;;;5061342;28;20135;-66
2021/12/27 00:10:28;;;;;;;26.25;16.15;;;-0.60;99.90;;;;;;5061385;28;20049;-67
2021/12/27 00:12:55;;;;;;;31.48;15.95;;;-0.90;99.90;;;;;;5043176;28;20051;-68
2021/12/27 00:15:21;;;;;;;26.20;16.08;;;-0.90;99.90;;;;;;5061217;28;20056;-68
2021/12/27 00:17:47;;;;;;;26.65;15.70;;;-0.90;99.90;;;;;;5061097;28;20041;-67
2021/12/27 00:20:18;;;;;;;26.30;16.67;;;-1.00;99.90;;;;;;5061279;28;20045;-66
2021/12/27 00:22:45;;;;;;;23.02;15.45;;;-1.00;99.90;;;;;;5061600;28;20458;-68
2021/12/27 00:25:12;;;;;;;25.40;15.57;;;-1.10;99.90;;;;;;5043726;28;20345;-67
2021/12/27 00:27:38;;;;;;;24.60;14.52;;;-1.10;99.90;;;;;;5043395;28;20475;-68
2021/12/27 00:30:05;;;;;;;27.50;14.85;;;-1.10;99.90;;;;;;5043914;28;20146;-67
2021/12/27 00:32:33;;;;;;;26.63;16.75;;;-1.20;99.90;;;;;;5043623;28;20049;-67
2021/12/27 00:34:58;;;;;;;24.90;14.13;;;-1.20;99.90;;;;;;5061243;28;20064;-67
2021/12/27 00:37:24;;;;;;;27.27;16.50;;;-1.20;99.90;;;;;;5061165;28;20423;-67
2021/12/27 00:39:49;;;;;;;25.73;15.98;;;-1.30;99.90;;;;;;5061082;28;20041;-67
2021/12/27 00:42:15;;;;;;;24.65;16.52;;;-1.30;99.90;;;;;;5060700;28;20102;-67
2021/12/27 00:44:41;;;;;;;27.58;17.20;;;-1.30;99.90;;;;;;5061026;28;20067;-68
2021/12/27 00:47:06;;;;;;;24.30;16.15;;;-1.20;99.90;;;;;;5061186;28;20449;-67
2021/12/27 00:49:32;;;;;;;27.58;17.25;;;-1.20;99.90;;;;;;5061201;28;20131;-68
2021/12/27 00:51:58;;;;;;;26.85;16.65;;;-1.20;99.90;;;;;;5043484;28;20049;-66
2021/12/27 00:54:23;;;;;;;26.60;16.88;;;-1.20;99.90;;;;;;5061121;28;20507;-66
2021/12/27 00:56:49;;;;;;;26.05;15.35;;;-1.10;99.90;;;;;;5043379;28;20082;-68
2021/12/27 00:59:15;;;;;;;23.88;15.93;;;-1.20;99.90;;;;;;5060564;28;20360;-67
2021/12/27 01:01:40;;;;;;;24.73;15.73;;;-1.10;99.90;;;;;;5060821;28;20037;-66
2021/12/27 01:04:06;;;;;;;26.38;17.42;;;-1.10;99.90;;;;;;5043439;28;20052;-67
2021/12/27 01:06:32;;;;;;;27.60;17.15;;;-1.10;99.90;;;;;;5043740;28;20060;-68
2021/12/27 01:08:58;;;;;;;25.42;16.33;;;-1.00;99.90;;;;;;5061166;28;20044;-66
2021/12/27 01:11:27;;;;;;;27.02;15.43;;;-1.00;99.90;;;;;;5041004;28;20471;-67
2021/12/27 01:14:16;;;;;;;27.30;17.48;;;-1.00;99.90;;;;;;5039454;28;20052;-68
2021/12/27 01:16:44;;;;;;;25.10;16.75;;;-0.90;99.90;;;;;;5040510;28;20059;-69
2021/12/27 01:19:11;;;;;;;25.48;16.00;;;-0.90;99.90;;;;;;5039914;28;20049;-67
2021/12/27 01:21:37;;;;;;;29.55;17.33;;;-0.90;99.90;;;;;;5057421;28;20045;-67
2021/12/27 01:24:03;;;;;;;27.10;16.85;;;-0.90;99.90;;;;;;5039738;28;20049;-66
2021/12/27 01:26:29;;;;;;;25.92;15.07;;;-0.90;99.90;;;;;;5040060;28;20049;-67
2021/12/27 01:29:00;;;;;;;27.42;16.65;;;-0.90;99.90;;;;;;5040116;28;20045;-66
2021/12/27 01:31:27;;;;;;;27.25;17.17;;;-0.90;99.90;;;;;;5040026;28;20102;-68
2021/12/27 01:33:52;;;;;;;25.17;16.65;;;-0.90;99.90;;;;;;5057296;28;20037;-67
2021/12/27 01:36:18;;;;;;;26.95;16.77;;;-0.90;99.90;;;;;;5057106;28;20094;-66
2021/12/27 01:38:45;;;;;;;25.95;16.65;;;-0.80;99.90;;;;;;5057625;28;20068;-66
2021/12/27 01:41:13;;;;;;;26.48;16.60;;;-0.80;99.90;;;;;;5039923;28;20048;-67
2021/12/27 01:43:40;;;;;;;29.30;16.58;;;-0.80;99.90;;;;;;5056758;28;20514;-68
2021/12/27 01:46:10;;;;;;;26.85;16.17;;;-0.80;99.90;;;;;;5044806;28;20060;-67
2021/12/27 01:48:41;;;;;;;27.50;17.48;;;-0.80;99.90;;;;;;5056910;28;20071;-67
2021/12/27 01:51:10;;;;;;;25.75;16.52;;;-0.80;99.90;;;;;;5056583;28;20095;-67
2021/12/27 01:53:39;;;;;;;24.98;15.80;;;-0.80;99.90;;;;;;5056800;28;20089;-68
2021/12/27 01:56:07;;;;;;;26.60;16.10;;;-0.80;99.90;;;;;;5056728;28;20069;-66
2021/12/27 01:58:33;;;;;;;28.90;17.80;;;-0.80;99.90;;;;;;5056827;28;20132;-68
2021/12/27 02:01:00;;;;;;;30.95;18.20;;;-0.70;99.90;;;;;;5056795;28;20045;-67
2021/12/27 02:03:29;;;;;;;26.70;17.77;;;-0.70;99.90;;;;;;5055693;28;20076;-67
2021/12/27 02:05:56;;;;;;;27.33;17.40;;;-0.80;99.90;;;;;;5056557;28;20094;-68
2021/12/27 02:08:21;;;;;;;30.05;18.48;;;-0.10;99.90;;;;;;5057021;28;20048;-68
2021/12/27 02:10:49;;;;;;;28.10;17.65;;;-0.70;99.90;;;;;;5056622;28;20067;-68
2021/12/27 02:13:15;;;;;;;29.88;18.23;;;-0.70;99.90;;;;;;5043848;28;20042;-67
2021/12/27 02:15:41;;;;;;;25.15;16.65;;;-0.70;99.90;;;;;;5035857;28;20484;-66
2021/12/27 02:18:09;;;;;;;28.98;18.17;;;-0.70;99.90;;;;;;5035566;28;20134;-67
2021/12/27 02:20:35;;;;;;;27.63;17.67;;;-0.70;99.90;;;;;;5036363;28;20061;-67
2021/12/27 02:23:04;;;;;;;27.45;16.23;;;-0.70;99.90;;;;;;5035893;28;20072;-68
2021/12/27 02:25:32;;;;;;;30.83;19.25;;;-0.70;99.90;;;;;;5035241;28;20045;-67
2021/12/27 02:28:00;;;;;;;29.90;18.92;;;-0.60;99.90;;;;;;5036391;28;20085;-67
2021/12/27 02:30:25;;;;;;;30.95;18.00;;;-0.60;99.90;;;;;;5035336;28;20041;-68
2021/12/27 02:32:54;;;;;;;26.70;17.92;;;-0.70;99.90;;;;;;5035346;28;20060;-66
2021/12/27 02:35:24;;;;;;;25.70;17.23;;;-0.60;99.90;;;;;;5035837;28;20071;-67
2021/12/27 02:37:50;;;;;;;31.23;17.23;;;-0.20;99.90;;;;;;5035580;28;20046;-68
2021/12/27 02:40:17;;;;;;;26.10;16.38;;;-0.60;99.90;;;;;;5036384;28;20111;-68
2021/12/27 02:43:06;;;;;;;30.20;19.40;;;-0.60;99.90;;;;;;5041979;28;20040;-67
2021/12/27 02:45:43;;;;;;;29.45;19.70;;;-0.60;99.90;;;;;;5055675;28;20045;-68
2021/12/27 02:48:10;;;;;;;27.67;17.95;;;-0.60;99.90;;;;;;5038020;28;20056;-66
2021/12/27 02:50:37;;;;;;;30.42;19.25;;;-0.50;99.90;;;;;;5055494;28;20136;-66
2021/12/27 02:53:05;;;;;;;33.03;19.50;;;-0.60;99.90;;;;;;5038631;28;20431;-66
2021/12/27 02:55:31;;;;;;;26.75;16.17;;;-0.10;99.90;;;;;;5038520;28;20053;-67
2021/12/27 02:57:57;;;;;;;32.17;18.70;;;-0.50;99.90;;;;;;5038326;28;20455;-66
2021/12/27 03:00:27;;;;;;;31.30;20.17;;;-0.50;99.90;;;;;;5037790;28;20059;-66
2021/12/27 03:02:54;;;;;;;29.95;18.90;;;-0.50;99.90;;;;;;5055476;28;20045;-66
2021/12/27 03:05:22;;;;;;;35.30;19.38;;;-0.50;99.90;;;;;;5038124;28;20077;-68
2021/12/27 03:07:49;;;;;;;28.90;18.98;;;-0.50;99.90;;;;;;5055931;28;20056;-68
2021/12/27 03:10:18;;;;;;;29.52;17.17;;;-0.50;99.90;;;;;;5038132;28;20119;-68
2021/12/27 03:12:45;;;;;;;33.45;19.35;;;-0.40;99.90;;;;;;5055228;28;20059;-67
2021/12/27 03:15:12;;;;;;;28.17;17.35;;;-0.40;99.90;;;;;;5055383;28;20068;-67
2021/12/27 03:17:38;;;;;;;27.80;17.88;;;-0.40;99.90;;;;;;5055438;28;20195;-69
2021/12/27 03:20:07;;;;;;;29.65;18.17;;;-0.40;99.90;;;;;;5055564;28;20063;-66
2021/12/27 03:22:33;;;;;;;28.35;18.30;;;-0.40;99.90;;;;;;5055340;28;20047;-68
2021/12/27 03:24:59;;;;;;;30.70;19.80;;;-0.10;99.90;;;;;;5055196;28;20063;-67
2021/12/27 03:27:25;;;;;;;31.73;19.63;;;-0.40;99.90;;;;;;5037649;28;20183;-67
2021/12/27 03:29:51;;;;;;;29.58;19.15;;;-0.40;99.90;;;;;;5055542;28;20420;-68
2021/12/27 03:32:18;;;;;;;30.55;20.20;;;-0.40;99.90;;;;;;5055322;28;20116;-67
2021/12/27 03:34:53;;;;;;;31.17;19.67;;;-0.40;99.90;;;;;;5054704;28;20059;-66
2021/12/27 03:37:20;;;;;;;32.45;19.92;;;-0.40;99.90;;;;;;5054730;28;20520;-67
2021/12/27 03:39:46;;;;;;;32.90;18.98;;;-0.40;99.90;;;;;;5037802;28;20045;-68
2021/12/27 03:42:12;;;;;;;29.60;18.75;;;-0.40;99.90;;;;;;5037544;28;20049;-67
2021/12/27 03:44:37;;;;;;;31.58;19.52;;;-0.30;99.90;;;;;;5038044;28;20049;-68
2021/12/27 03:47:03;;;;;;;29.63;19.08;;;-0.30;99.90;;;;;;5055068;28;20083;-67
2021/12/27 03:49:29;;;;;;;29.58;19.58;;;-0.30;99.90;;;;;;5054993;28;20084;-67
2021/12/27 03:51:55;;;;;;;29.60;18.95;;;-0.30;99.90;;;;;;5054851;28;20357;-67
2021/12/27 03:54:20;;;;;;;32.80;19.73;;;-0.30;99.90;;;;;;5037591;28;20102;-67
2021/12/27 03:56:46;;;;;;;30.20;18.63;;;-0.30;99.90;;;;;;5037794;28;20045;-68
2021/12/27 03:59:21;;;;;;;31.30;19.52;;;-0.20;99.90;;;;;;5054833;28;20475;-68
2021/12/27 04:01:47;;;;;;;33.88;21.30;;;-0.30;99.90;;;;;;5054898;28;20090;-68
2021/12/27 04:04:13;;;;;;;30.33;19.52;;;0.30;99.90;;;;;;5054906;28;20139;-67
2021/12/27 04:06:38;;;;;;;29.40;19.45;;;-0.20;99.90;;;;;;5054373;28;20364;-66
2021/12/27 04:09:04;;;;;;;29.63;19.45;;;-0.20;99.90;;;;;;5037689;28;20373;-66
2021/12/27 04:11:31;;;;;;;31.30;19.90;;;-0.20;99.90;;;;;;5054763;28;20076;-69
2021/12/27 04:13:58;;;;;;;33.55;20.75;;;-0.20;99.90;;;;;;5020321;28;20052;-66
2021/12/27 04:16:24;;;;;;;31.23;20.27;;;-0.20;99.90;;;;;;5036870;28;20040;-67
2021/12/27 04:18:50;;;;;;;32.88;20.00;;;-0.20;99.90;;;;;;5054611;28;20040;-67
2021/12/27 04:21:16;;;;;;;30.23;20.23;;;-0.20;99.90;;;;;;5054558;28;20444;-66
2021/12/27 04:23:41;;;;;;;30.40;19.33;;;-0.20;99.90;;;;;;5054968;28;20487;-66
2021/12/27 04:26:07;;;;;;;32.88;20.02;;;-0.20;99.90;;;;;;5054866;28;20381;-68
2021/12/27 04:28:33;;;;;;;32.55;20.58;;;-0.20;99.90;;;;;;5054732;28;20048;-66
2021/12/27 04:30:58;;;;;;;30.80;19.40;;;-0.20;99.90;;;;;;5054496;28;20087;-67
2021/12/27 04:33:24;;;;;;;29.95;19.30;;;-0.20;99.90;;;;;;5054747;28;20037;-67
2021/12/27 04:35:50;;;;;;;30.65;19.42;;;-0.20;99.90;;;;;;5036390;28;20147;-68
2021/12/27 04:38:16;;;;;;;31.98;20.08;;;0.40;99.90;;;;;;5054178;28;20071;-68
2021/12/27 04:40:43;;;;;;;31.48;20.00;;;-0.10;99.90;;;;;;5054719;28;20128;-68
2021/12/27 04:43:16;;;;;;;32.92;20.45;;;-0.10;99.90;;;;;;5054547;28;20071;-67
2021/12/27 04:45:43;;;;;;;29.60;19.10;;;-0.10;99.90;;;;;;5037074;28;20446;-68
2021/12/27 04:48:08;;;;;;;32.30;20.17;;;-0.10;99.90;;;;;;5040230;28;20060;-67
2021/12/27 04:50:35;;;;;;;33.83;19.60;;;-0.10;99.90;;;;;;5040654;28;20366;-67
2021/12/27 04:53:00;;;;;;;34.80;20.60;;;0.00;99.90;;;;;;5058273;28;20045;-68
2021/12/27 04:55:27;;;;;;;33.20;20.58;;;0.00;99.90;;;;;;5040453;28;20138;-68
2021/12/27 04:57:53;;;;;;;31.52;20.35;;;0.00;99.90;;;;;;5040212;28;20045;-68
2021/12/27 05:00:19;;;;;;;32.35;21.38;;;0.00;99.90;;;;;;5058169;28;20041;-68
2021/12/27 05:02:45;;;;;;;34.22;20.20;;;0.00;99.90;;;;;;5040189;28;20338;-68
2021/12/27 05:05:11;;;;;;;32.92;19.58;;;0.00;99.90;;;;;;5039493;28;20051;-67
2021/12/27 05:07:37;;;;;;;31.58;20.25;;;0.00;99.90;;;;;;5057207;28;20041;-68
2021/12/27 05:10:04;;;;;;;29.77;19.42;;;0.60;99.90;;;;;;5040309;28;20037;-68
2021/12/27 05:12:30;;;;;;;32.08;18.77;;;0.10;99.90;;;;;;5058188;28;20044;-67
2021/12/27 05:14:56;;;;;;;29.48;20.48;;;0.10;99.90;;;;;;5040151;28;20449;-68
2021/12/27 05:17:21;;;;;;;31.58;20.13;;;0.10;99.90;;;;;;5057565;28;20053;-69
2021/12/27 05:19:47;;;;;;;34.22;19.52;;;0.10;99.90;;;;;;5040602;28;20338;-67
2021/12/27 05:22:13;;;;;;;32.47;20.38;;;0.10;99.90;;;;;;5040450;28;20087;-67
2021/12/27 05:24:38;;;;;;;30.92;20.35;;;0.10;99.90;;;;;;5040573;28;20117;-68
2021/12/27 05:27:04;;;;;;;32.40;21.50;;;0.10;99.90;;;;;;5040071;28;20060;-68
2021/12/27 05:29:30;;;;;;;32.92;21.55;;;0.10;99.90;;;;;;5057976;28;20131;-67
2021/12/27 05:32:01;;;;;;;32.30;20.67;;;0.10;99.90;;;;;;5039708;28;20088;-68
2021/12/27 05:34:28;;;;;;;32.42;20.38;;;0.10;99.90;;;;;;5040076;28;20056;-66
2021/12/27 05:36:54;;;;;;;33.92;21.77;;;0.10;99.90;;;;;;5056679;28;20056;-68
2021/12/27 05:39:21;;;;;;;29.92;20.67;;;0.10;99.90;;;;;;5039353;28;20049;-68
2021/12/27 05:41:48;;;;;;;30.50;19.52;;;0.10;99.90;;;;;;5056821;28;20191;-68
2021/12/27 05:44:14;;;;;;;34.88;20.80;;;0.10;99.90;;;;;;5039702;28;20379;-67
2021/12/27 05:46:40;;;;;;;32.35;20.33;;;0.20;99.90;;;;;;5056941;28;20057;-68
2021/12/27 05:49:06;;;;;;;33.30;19.63;;;0.20;99.90;;;;;;5040288;28;20071;-68
2021/12/27 05:51:32;;;;;;;31.48;20.55;;;0.20;99.90;;;;;;5056878;28;20132;-66
2021/12/27 05:53:57;;;;;;;32.58;20.05;;;0.20;99.90;;;;;;5039823;28;20053;-66
2021/12/27 05:56:23;;;;;;;34.22;21.17;;;0.20;99.90;;;;;;5039046;28;20055;-67
2021/12/27 05:58:49;;;;;;;30.75;19.90;;;0.20;99.90;;;;;;5056748;28;20041;-68
2021/12/27 06:01:14;;;;;;;32.55;20.73;;;0.20;99.90;;;;;;5039146;28;20048;-67
2021/12/27 06:03:40;;;;;;;33.97;21.33;;;0.70;99.90;;;;;;5056321;28;20043;-68
2021/12/27 06:06:07;;;;;;;31.20;19.95;;;0.20;99.90;;;;;;5056398;28;20088;-67
2021/12/27 06:08:33;;;;;;;34.50;21.70;;;0.20;99.90;;;;;;5039285;28;20072;-67
2021/12/27 06:10:58;;;;;;;34.13;21.02;;;0.20;99.90;;;;;;5039454;28;20356;-67
2021/12/27 06:13:24;;;;;;;34.60;22.63;;;0.20;99.90;;;;;;5056823;28;20037;-68
2021/12/27 06:15:50;;;;;;;37.90;22.23;;;0.20;99.90;;;;;;5039104;28;20048;-67
2021/12/27 06:18:15;;;;;;;34.20;22.15;;;0.10;99.90;;;;;;5056298;28;20507;-67
2021/12/27 06:20:41;;;;;;;42.35;23.63;;;0.20;99.90;;;;;;5056795;28;20049;-67
2021/12/27 06:23:06;;;;;;;39.05;23.38;;;0.20;99.90;;;;;;5039364;28;20049;-67
2021/12/27 06:25:32;;;;;;;39.45;23.13;;;0.20;99.90;;;;;;5039180;28;20124;-68
2021/12/27 06:27:58;;;;;;;35.58;23.23;;;0.20;99.90;;;;;;5056354;28;20083;-66
2021/12/27 06:30:24;;;;;;;39.58;24.63;;;0.20;99.90;;;;;;5056171;28;20334;-68
2021/12/27 06:32:49;;;;;;;43.88;22.20;;;0.20;99.90;;;;;;5056114;28;20048;-67
2021/12/27 06:35:17;;;;;;;38.75;24.15;;;0.10;99.90;;;;;;5056019;28;20049;-67
2021/12/27 06:37:44;;;;;;;37.40;23.25;;;0.20;99.90;;;;;;5055747;28;20037;-67
2021/12/27 06:40:12;;;;;;;40.30;24.35;;;0.60;99.90;;;;;;5056298;28;20351;-68
2021/12/27 06:42:38;;;;;;;40.63;24.25;;;0.20;99.90;;;;;;5038665;28;20045;-66
2021/12/27 06:45:05;;;;;;;40.67;23.67;;;0.20;99.90;;;;;;5055800;28;20512;-67
2021/12/27 06:47:30;;;;;;;40.42;24.83;;;0.20;99.90;;;;;;5056551;28;20065;-68
2021/12/27 06:49:56;;;;;;;44.22;25.27;;;0.20;99.90;;;;;;5038677;28;20515;-69
2021/12/27 06:52:24;;;;;;;39.70;25.08;;;0.30;99.90;;;;;;5038386;28;20056;-68
2021/12/27 06:54:49;;;;;;;42.20;25.45;;;0.20;99.90;;;;;;5055983;28;20052;-67
2021/12/27 06:57:16;;;;;;;42.20;23.00;;;0.20;99.90;;;;;;5038148;28;20052;-69
2021/12/27 06:59:41;;;;;;;41.53;22.98;;;0.20;99.90;;;;;;5055812;28;20045;-69
2021/12/27 07:02:07;;;;;;;41.55;24.75;;;0.20;99.90;;;;;;5038569;28;20044;-68
2021/12/27 07:04:32;;;;;;;43.08;25.42;;;0.30;99.90;;;;;;5038319;28;20053;-67
2021/12/27 07:06:58;;;;;;;42.60;25.27;;;0.30;99.90;;;;;;5017919;28;20037;-67
2021/12/27 07:09:24;;;;;;;43.97;26.05;;;0.20;99.90;;;;;;5047119;28;20103;-68
2021/12/27 07:11:50;;;;;;;44.25;25.52;;;0.30;99.90;;;;;;5051838;28;20047;-67
2021/12/27 07:14:15;;;;;;;43.40;24.60;;;0.40;99.90;;;;;;5054319;28;20048;-68
2021/12/27 07:16:41;;;;;;;46.65;26.10;;;0.30;99.90;;;;;;5037416;28;20044;-66
2021/12/27 07:19:07;;;;;;;43.53;27.10;;;0.20;99.90;;;;;;5042909;28;20133;-66
2021/12/27 07:21:32;;;;;;;49.85;25.85;;;0.30;99.90;;;;;;5021943;28;20041;-66
2021/12/27 07:23:58;;;;;;;44.92;26.08;;;0.30;99.90;;;;;;5055364;28;20049;-67
2021/12/27 07:26:23;;;;;;;44.80;25.13;;;0.20;99.90;;;;;;5037560;28;20051;-69
2021/12/27 07:28:49;;;;;;;46.05;26.60;;;0.30;99.90;;;;;;5055196;28;20079;-66
2021/12/27 07:31:14;;;;;;;53.25;28.35;;;0.30;99.90;;;;;;5054987;28;20053;-69
2021/12/27 07:33:40;;;;;;;47.25;26.40;;;0.30;99.90;;;;;;5055018;28;20088;-68
2021/12/27 07:36:08;;;;;;;45.33;25.40;;;0.30;99.90;;;;;;5037733;28;20049;-67
2021/12/27 07:38:34;;;;;;;51.47;27.33;;;0.30;99.90;;;;;;5055005;28;20059;-66
2021/12/27 07:41:00;;;;;;;48.33;26.40;;;0.30;99.90;;;;;;5055072;28;20360;-66
2021/12/27 07:43:26;;;;;;;45.22;26.17;;;0.30;99.90;;;;;;5037186;28;20049;-68
2021/12/27 07:45:51;;;;;;;46.55;27.15;;;0.30;99.90;;;;;;5054463;28;20084;-66
2021/12/27 07:48:17;;;;;;;49.67;27.48;;;0.30;99.90;;;;;;5054627;28;20475;-67
2021/12/27 07:50:42;;;;;;;48.60;26.65;;;0.30;99.90;;;;;;5036850;28;20388;-67
2021/12/27 07:53:08;;;;;;;52.45;28.50;;;0.30;99.90;;;;;;5054904;28;20052;-67
2021/12/27 07:55:34;;;;;;;48.75;28.15;;;0.70;99.90;;;;;;5054820;28;20096;-68
2021/12/27 07:58:00;;;;;;;52.53;27.33;;;0.30;99.90;;;;;;5054656;28;20076;-68
2021/12/27 08:00:26;;;;;;;50.85;28.13;;;0.30;99.90;;;;;;5054456;28;20037;-67
2021/12/27 08:02:52;;;;;;;53.40;27.98;;;0.30;99.90;;;;;;5054601;28;20063;-66
2021/12/27 08:05:18;;;;;;;45.15;28.00;;;0.30;99.90;;;;;;5054611;28;20107;-68
2021/12/27 08:07:44;;;;;;;53.22;27.90;;;0.30;99.90;;;;;;5053860;28;20060;-68
2021/12/27 08:10:11;;;;;;;46.50;28.23;;;0.80;99.90;;;;;;5053404;28;20107;-67
2021/12/27 08:12:38;;;;;;;53.92;27.98;;;0.40;99.90;;;;;;5036874;28;20041;-68
2021/12/27 08:15:05;;;;;;;49.58;27.45;;;0.40;99.90;;;;;;5054267;28;20040;-66
2021/12/27 08:17:31;;;;;;;51.33;27.15;;;0.40;99.90;;;;;;5037666;28;20045;-67
2021/12/27 08:19:57;;;;;;;52.00;28.77;;;0.40;99.90;;;;;;5053043;28;20052;-66
2021/12/27 08:22:22;;;;;;;53.72;28.75;;;0.40;99.90;;;;;;5057076;28;20041;-68
2021/12/27 08:24:49;;;;;;;49.72;27.13;;;0.50;99.90;;;;;;5058404;28;20120;-67
2021/12/27 08:27:15;;;;;;;52.75;27.60;;;0.50;99.90;;;;;;5058237;28;20048;-70
2021/12/27 08:29:40;;;;;;;54.20;28.00;;;0.50;99.90;;;;;;5058566;28;20350;-67
2021/12/27 08:32:06;;;;;;;56.08;29.38;;;0.50;99.90;;;;;;5058251;28;20059;-67
2021/12/27 08:34:32;;;;;;;55.47;27.80;;;0.50;99.90;;;;;;5058283;28;20048;-68
2021/12/27 08:36:59;;;;;;;53.90;28.02;;;0.50;99.90;;;;;;5058186;28;20131;-68
2021/12/27 08:39:24;;;;;;;52.78;27.33;;;0.60;99.90;;;;;;5040341;28;20087;-67
2021/12/27 08:41:51;;;;;;;53.78;28.52;;;0.60;99.90;;;;;;5040229;28;20084;-68
2021/12/27 08:44:16;;;;;;;52.88;25.30;;;0.60;99.90;;;;;;5058243;28;20055;-67
2021/12/27 08:46:42;;;;;;;51.22;27.20;;;0.60;99.90;;;;;;5058049;28;20132;-68
2021/12/27 08:49:09;;;;;;;56.53;28.42;;;0.60;99.90;;;;;;5040335;28;20057;-67
2021/12/27 08:51:35;;;;;;;50.42;26.02;;;0.60;99.90;;;;;;5036019;28;20049;-68
2021/12/27 08:54:02;;;;;;;52.50;27.80;;;0.60;99.90;;;;;;5020661;28;20420;-68
2021/12/27 08:56:28;;;;;;;50.97;26.60;;;0.70;99.90;;;;;;5037617;28;20056;-67
2021/12/27 08:58:54;;;;;;;56.40;28.35;;;0.70;99.90;;;;;;5037743;28;20369;-67
2021/12/27 09:01:21;;;;;;;55.15;27.52;;;0.80;99.90;;;;;;5038444;28;20460;-67
2021/12/27 09:03:46;;;;;;;56.70;28.10;;;0.80;99.90;;;;;;5037740;28;20532;-67
2021/12/27 09:06:14;;;;;;;47.63;25.83;;;0.80;99.90;;;;;;5037932;28;20128;-69
2021/12/27 09:08:40;;;;;;;60.50;27.80;;;0.80;99.90;;;;;;5003514;28;20043;-67
2021/12/27 09:11:05;;;;;;;62.30;28.92;;;0.80;99.90;;;;;;5037687;28;20045;-68
2021/12/27 09:13:33;;;;;;;63.33;28.17;;;0.80;99.90;;;;;;5021070;28;20050;-68
2021/12/27 09:16:01;;;;;;;61.03;28.17;;;0.90;99.90;;;;;;5037799;28;20050;-69
2021/12/27 09:18:29;;;;;;;54.15;25.20;;;0.90;99.90;;;;;;5037741;28;20053;-66
2021/12/27 09:20:55;;;;;;;52.30;26.48;;;0.90;99.90;;;;;;5020462;28;20089;-69
2021/12/27 09:23:20;;;;;;;68.72;28.00;;;1.00;99.90;;;;;;5037480;28;20111;-68
2021/12/27 09:25:47;;;;;;;55.15;25.45;;;1.00;99.90;;;;;;5037350;28;20037;-68
2021/12/27 09:28:13;;;;;;;66.13;30.02;;;1.00;99.90;;;;;;5037169;28;20041;-66
2021/12/27 09:30:39;;;;;;;62.28;27.02;;;1.00;99.90;;;;;;5037335;28;20050;-68
2021/12/27 09:33:05;;;;;;;69.30;29.33;;;1.00;99.90;;;;;;5036780;28;20056;-68
2021/12/27 09:35:31;;;;;;;80.43;31.05;;;1.00;99.90;;;;;;5019981;28;20373;-69
2021/12/27 09:37:57;;;;;;;82.10;30.73;;;1.00;99.90;;;;;;5019859;28;20052;-69
2021/12/27 09:40:22;;;;;;;77.22;30.77;;;1.00;99.90;;;;;;5036848;28;20045;-67
2021/12/27 09:42:49;;;;;;;74.72;30.50;;;1.00;99.90;;;;;;5037485;28;20129;-67
2021/12/27 09:45:15;;;;;;;70.80;29.92;;;1.00;99.90;;;;;;5019684;28;20045;-68
2021/12/27 09:47:42;;;;;;;79.65;31.27;;;1.00;99.90;;;;;;5037533;28;20133;-67
2021/12/27 09:50:10;;;;;;;82.32;32.25;;;1.00;99.90;;;;;;5037472;28;20069;-69
2021/12/27 09:52:36;;;;;;;82.15;30.20;;;1.00;99.90;;;;;;5034522;28;20071;-68
2021/12/27 09:55:03;;;;;;;80.50;32.10;;;1.00;99.90;;;;;;5038922;28;20091;-67
2021/12/27 09:57:31;;;;;;;92.30;33.13;;;1.00;99.90;;;;;;5056731;28;20384;-67
2021/12/27 09:59:56;;;;;;;102.20;33.38;;;1.00;99.90;;;;;;5057111;28;20040;-68
2021/12/27 10:02:24;;;;;;;112.63;35.80;;;1.00;99.90;;;;;;5039167;28;20053;-69
2021/12/27 10:04:50;;;;;;;85.88;33.60;;;1.00;99.90;;;;;;5038838;28;20057;-67
2021/12/27 10:07:23;;;;;;;104.70;32.22;;;1.10;99.90;;;;;;5030444;28;20037;-67
2021/12/27 10:09:59;;;;;;;95.00;34.63;;;1.00;99.90;;;;;;5036552;28;20254;-67
2021/12/27 10:12:28;;;;;;;91.40;31.35;;;1.10;99.90;;;;;;5019406;28;20045;-67
2021/12/27 10:15:02;;;;;;;101.03;37.97;;;1.10;99.90;;;;;;5036744;28;20440;-67
2021/12/27 10:17:31;;;;;;;;;;;1.20;99.90;;;;;;5019501;28;20461;-67
2021/12/27 10:20:10;;;;;;;77.35;29.85;;;1.20;99.90;;;;;;5018762;28;19932;-66
2021/12/27 10:22:45;;;;;;;97.63;31.65;;;1.30;99.90;;;;;;5036351;28;20038;-69
2021/12/27 10:25:16;;;;;;;90.72;31.15;;;1.30;99.90;;;;;;5038409;28;20053;-67
2021/12/27 10:27:42;;;;;;;97.07;31.50;;;1.40;99.90;;;;;;5036495;28;20381;-69
2021/12/27 10:30:12;;;;;;;100.63;32.78;;;1.40;99.90;;;;;;5036483;28;20041;-68
2021/12/27 10:32:38;;;;;;;96.15;31.05;;;1.40;99.90;;;;;;5018484;28;20477;-68
2021/12/27 10:35:09;;;;;;;114.68;33.55;;;1.50;99.90;;;;;;5018832;28;20131;-68
2021/12/27 10:37:37;;;;;;;108.95;33.80;;;1.50;99.90;;;;;;5036377;28;20049;-67
2021/12/27 10:40:10;;;;;;;105.03;32.60;;;1.50;99.90;;;;;;5035949;28;20056;-68
2021/12/27 10:42:37;;;;;;;131.07;34.97;;;1.60;99.90;;;;;;5036412;28;20053;-68
2021/12/27 10:45:11;;;;;;;122.40;34.13;;;1.60;99.90;;;;;;5035068;28;20045;-67
2021/12/27 10:47:57;;;;;;;107.22;34.78;;;1.60;99.90;;;;;;5035693;28;20056;-67
2021/12/27 10:50:26;;;;;;;102.72;32.47;;;1.70;99.90;;;;;;5035172;28;20045;-68
2021/12/27 10:52:55;;;;;;;110.68;35.08;;;1.70;99.90;;;;;;5054900;28;20040;-68
2021/12/27 10:55:24;;;;;;;148.73;37.28;;;1.70;99.90;;;;;;5055782;28;20059;-67
2021/12/27 10:57:51;;;;;;;104.40;34.58;;;1.80;99.90;;;;;;5021631;28;20059;-68
2021/12/27 11:00:30;;;;;;;107.70;33.65;;;1.80;99.90;;;;;;5055469;28;20033;-67
2021/12/27 11:02:58;;;;;;;111.95;32.50;;;1.80;99.90;;;;;;5055553;28;20049;-67
2021/12/27 11:05:25;;;;;;;111.50;33.13;;;1.90;99.90;;;;;;5056002;28;20361;-69
2021/12/27 11:07:53;;;;;;;125.88;33.92;;;1.90;99.90;;;;;;5037650;28;20053;-67
2021/12/27 11:10:20;;;;;;;98.43;32.00;;;1.80;99.90;;;;;;5056242;28;20052;-68
2021/12/27 11:12:49;;;;;;;157.63;37.72;;;1.80;99.90;;;;;;5055538;28;20129;-68
2021/12/27 11:15:15;;;;;;;103.10;33.65;;;1.80;99.90;;;;;;5055583;28;20515;-67
2021/12/27 11:17:44;;;;;;;139.70;37.88;;;1.90;99.90;;;;;;5055252;28;20041;-67
2021/12/27 11:20:12;;;;;;;114.25;33.58;;;1.90;99.90;;;;;;5021436;28;20045;-67
2021/12/27 11:22:42;;;;;;;114.30;31.48;;;1.90;99.90;;;;;;5037616;28;20064;-66
2021/12/27 11:25:19;;;;;;;137.35;35.83;;;1.90;99.90;;;;;;5035637;28;20053;-68
2021/12/27 11:27:45;;;;;;;132.68;34.55;;;2.00;99.90;;;;;;5035510;28;20044;-68
2021/12/27 11:30:12;;;;;;;170.57;37.70;;;2.00;99.90;;;;;;5035895;28;20124;-68
2021/12/27 11:32:58;;;;;;;108.72;32.58;;;2.00;99.90;;;;;;5001685;28;20057;-68
2021/12/27 11:35:23;;;;;;;114.40;31.38;;;2.00;99.90;;;;;;5034936;28;20534;-69
2021/12/27 11:37:49;;;;;;;111.90;34.20;;;2.00;99.90;;;;;;5001993;28;20049;-68
2021/12/27 11:40:17;;;;;;;116.70;33.47;;;2.10;99.90;;;;;;5018188;28;20088;-67
2021/12/27 11:42:58;;;;;;;109.18;32.33;;;2.00;99.90;;;;;;5017618;28;20084;-67
2021/12/27 11:45:44;;;;;;;171.85;38.33;;;2.10;99.90;;;;;;5034106;28;20124;-67
2021/12/27 11:48:16;;;;;;;147.93;37.58;;;2.00;99.90;;;;;;5035292;28;20457;-68
2021/12/27 11:50:56;;;;;;;131.43;33.78;;;2.00;99.90;;;;;;5038471;28;20385;-67
2021/12/27 11:53:27;;;;;;;115.00;31.52;;;2.00;99.90;;;;;;5037285;28;20132;-68
2021/12/27 11:55:53;;;;;;;138.02;34.05;;;2.10;99.90;;;;;;5054416;28;20052;-67
2021/12/27 11:58:30;;;;;;;125.03;35.60;;;2.10;99.90;;;;;;5054567;28;20125;-68
2021/12/27 12:00:56;;;;;;;147.15;35.15;;;2.30;99.90;;;;;;5053146;28;20045;-68
2021/12/27 12:03:39;;;;;;;138.90;35.17;;;2.00;99.90;;;;;;5037630;28;20055;-67
2021/12/27 12:06:06;;;;;;;146.38;35.33;;;2.10;99.90;;;;;;5054876;28;20081;-68
2021/12/27 12:08:37;;;;;;;130.25;35.35;;;2.10;99.90;;;;;;5054649;28;20360;-68
2021/12/27 12:11:06;;;;;;;171.02;37.67;;;2.10;99.90;;;;;;5054572;28;20115;-68
2021/12/27 12:13:42;;;;;;;156.30;35.47;;;2.10;99.90;;;;;;5054745;28;20060;-67
2021/12/27 12:16:18;;;;;;;123.63;33.88;;;2.20;99.90;;;;;;5037144;28;20476;-67
2021/12/27 12:18:53;;;;;;;139.02;34.15;;;2.20;99.90;;;;;;5053421;28;20052;-67
2021/12/27 12:21:33;;;;;;;178.48;35.38;;;2.30;99.90;;;;;;5054405;28;20048;-68
2021/12/27 12:24:02;;;;;;;125.70;33.33;;;2.20;99.90;;;;;;5037207;28;20056;-67
2021/12/27 12:26:44;;;;;;;135.88;32.70;;;2.30;99.90;;;;;;5045339;28;20073;-66
2021/12/27 12:29:10;;;;;;;135.57;32.83;;;2.30;99.90;;;;;;5034590;28;20057;-68
2021/12/27 12:31:35;;;;;;;146.93;34.90;;;2.30;99.90;;;;;;5034424;28;20104;-67